createdAt,value
2019-03-04T00:00:42.175Z,18.4
2019-03-04T00:01:32.557Z,18.4
2019-03-04T00:02:22.318Z,18.4
2019-03-04T00:03:12.932Z,18.4
2019-03-04T00:04:02.699Z,18.4
2019-03-04T00:04:52.481Z,18.4
2019-03-04T00:05:42.539Z,18.4
2019-03-04T00:06:32.879Z,18.4
2019-03-04T00:07:22.381Z,18.4
2019-03-04T00:08:12.984Z,18.4
2019-03-04T00:09:03.326Z,18.4
2019-03-04T00:09:53.136Z,18.4
2019-03-04T00:10:42.206Z,18.4
2019-03-04T00:11:32.756Z,18.4
2019-03-04T00:12:22.806Z,18.4
2019-03-04T00:13:12.362Z,18.4
2019-03-04T00:14:02.983Z,18.4
2019-03-04T00:14:53.476Z,18.4
2019-03-04T00:15:42.974Z,18.4
2019-03-04T00:16:33.579Z,18.4
2019-03-04T00:17:23.716Z,18.4
2019-03-04T00:18:13.968Z,18.4
2019-03-04T00:19:03.491Z,18.4
2019-03-04T00:19:53.856Z,18.4
2019-03-04T00:20:43.888Z,18.4
2019-03-04T00:21:34.364Z,18.4
2019-03-04T00:22:24.001Z,18.4
2019-03-04T00:23:13.821Z,18.4
2019-03-04T00:24:03.585Z,18.4
2019-03-04T00:24:54.172Z,18.4
2019-03-04T00:25:44.508Z,18.4
2019-03-04T00:26:34.598Z,18.4
2019-03-04T00:27:24.118Z,18.4
2019-03-04T00:28:14.130Z,18.4
2019-03-04T00:29:04.188Z,18.4
2019-03-04T00:29:54.800Z,18.4
2019-03-04T00:30:44.295Z,18.4
2019-03-04T00:31:34.363Z,18.4
2019-03-04T00:32:24.977Z,18.4
2019-03-04T00:33:14.209Z,18.4
2019-03-04T00:34:04.547Z,18.4
2019-03-04T00:34:54.335Z,18.4
2019-03-04T00:35:44.928Z,18.4
2019-03-04T00:36:34.437Z,18.4
2019-03-04T00:37:24.767Z,18.4
2019-03-04T00:38:15.123Z,18.4
2019-03-04T00:39:05.165Z,18.4
2019-03-04T00:39:55.219Z,18.4
2019-03-04T00:40:45.278Z,18.4
2019-03-04T00:41:35.116Z,18.4
2019-03-04T00:42:25.674Z,18.4
2019-03-04T00:43:15.472Z,18.4
2019-03-04T00:44:05.238Z,18.4
2019-03-04T00:44:55.355Z,18.4
2019-03-04T00:45:45.665Z,18.4
2019-03-04T00:46:35.427Z,18.4
2019-03-04T00:47:25.490Z,18.4
2019-03-04T00:48:16.118Z,18.4
2019-03-04T00:49:05.620Z,18.4
2019-03-04T00:49:57.735Z,18.4
2019-03-04T00:50:46.262Z,18.4
2019-03-04T00:51:36.341Z,18.4
2019-03-04T00:52:25.846Z,18.4
2019-03-04T00:53:16.434Z,18.4
2019-03-04T00:54:06.569Z,18.4
2019-03-04T00:54:56.574Z,18.4
2019-03-04T00:55:46.603Z,18.4
2019-03-04T00:56:36.131Z,18.4
2019-03-04T00:57:26.191Z,18.4
2019-03-04T00:58:16.238Z,18.4
2019-03-04T00:59:06.284Z,18.4
2019-03-04T00:59:56.348Z,18.4
2019-03-04T01:00:46.688Z,18.4
2019-03-04T01:01:35.924Z,18.4
2019-03-04T01:02:26.244Z,18.4
2019-03-04T01:03:16.931Z,18.4
2019-03-04T01:04:06.925Z,18.4
2019-03-04T01:04:56.439Z,18.4
2019-03-04T01:05:47.041Z,18.4
2019-03-04T01:06:37.383Z,18.4
2019-03-04T01:07:26.881Z,18.4
2019-03-04T01:08:16.940Z,18.4
2019-03-04T01:09:06.995Z,18.4
2019-03-04T01:09:57.075Z,18.4
2019-03-04T01:10:47.727Z,18.4
2019-03-04T01:11:37.798Z,18.3
2019-03-04T01:12:27.780Z,18.4
2019-03-04T01:13:17.576Z,18.4
2019-03-04T01:14:06.829Z,18.4
2019-03-04T01:14:57.967Z,18.4
2019-03-04T01:15:47.532Z,18.4
2019-03-04T01:16:38.075Z,18.4
2019-03-04T01:17:27.595Z,18.4
2019-03-04T01:18:18.215Z,18.4
2019-03-04T01:19:08.267Z,18.4
2019-03-04T01:19:58.030Z,18.4
2019-03-04T01:20:48.089Z,18.4
2019-03-04T01:21:38.172Z,18.4
2019-03-04T01:22:28.495Z,18.3
2019-03-04T01:23:18.010Z,18.4
2019-03-04T01:24:07.804Z,18.4
2019-03-04T01:24:57.847Z,18.3
2019-03-04T01:25:48.782Z,18.4
2019-03-04T01:26:38.783Z,18.4
2019-03-04T01:27:28.567Z,18.3
2019-03-04T01:28:18.350Z,18.3
2019-03-04T01:29:08.426Z,18.3
2019-03-04T01:29:58.802Z,18.3
2019-03-04T01:30:48.808Z,18.4
2019-03-04T01:31:38.887Z,18.3
2019-03-04T01:32:28.641Z,18.3
2019-03-04T01:33:18.695Z,18.3
2019-03-04T01:34:09.077Z,18.3
2019-03-04T01:34:58.825Z,18.3
2019-03-04T01:35:49.422Z,18.3
2019-03-04T01:36:38.931Z,18.3
2019-03-04T01:37:29.004Z,18.3
2019-03-04T01:38:19.076Z,18.3
2019-03-04T01:39:09.389Z,18.3
2019-03-04T01:39:59.166Z,18.3
2019-03-04T01:40:49.793Z,18.3
2019-03-04T01:41:39.606Z,18.3
2019-03-04T01:42:29.914Z,18.3
2019-03-04T01:43:19.444Z,18.3
2019-03-04T01:44:10.026Z,18.3
2019-03-04T01:44:58.978Z,18.3
2019-03-04T01:45:49.858Z,18.3
2019-03-04T01:46:39.928Z,18.3
2019-03-04T01:47:29.976Z,18.3
2019-03-04T01:48:20.376Z,18.3
2019-03-04T01:49:09.544Z,18.3
2019-03-04T01:49:59.878Z,18.3
2019-03-04T01:50:50.204Z,18.3
2019-03-04T01:51:40.563Z,18.3
2019-03-04T01:52:30.136Z,18.3
2019-03-04T01:53:20.390Z,18.3
2019-03-04T01:54:09.888Z,18.3
2019-03-04T01:55:00.511Z,18.3
2019-03-04T01:55:50.545Z,18.3
2019-03-04T01:56:40.661Z,18.3
2019-03-04T01:57:30.956Z,18.3
2019-03-04T01:58:20.748Z,18.3
2019-03-04T01:59:10.793Z,18.3
2019-03-04T02:00:00.379Z,18.3
2019-03-04T02:00:50.905Z,18.3
2019-03-04T02:01:40.432Z,18.3
2019-03-04T02:02:31.312Z,18.3
2019-03-04T02:03:20.866Z,18.3
2019-03-04T02:04:10.307Z,18.3
2019-03-04T02:05:01.472Z,18.3
2019-03-04T02:05:50.995Z,18.2
2019-03-04T02:06:40.770Z,18.3
2019-03-04T02:07:31.660Z,18.2
2019-03-04T02:08:21.187Z,18.3
2019-03-04T02:09:11.797Z,18.3
2019-03-04T02:10:01.269Z,18.3
2019-03-04T02:10:51.883Z,18.3
2019-03-04T02:11:41.944Z,18.3
2019-03-04T02:12:32.014Z,18.3
2019-03-04T02:13:21.508Z,18.2
2019-03-04T02:14:11.624Z,18.3
2019-03-04T02:15:02.287Z,18.2
2019-03-04T02:15:51.981Z,18.3
2019-03-04T02:16:42.031Z,18.2
2019-03-04T02:17:30.998Z,18.2
2019-03-04T02:18:22.147Z,18.2
2019-03-04T02:19:12.244Z,18.2
2019-03-04T02:20:01.609Z,18.2
2019-03-04T02:20:52.334Z,18.2
2019-03-04T02:21:41.822Z,18.2
2019-03-04T02:22:32.436Z,18.2
2019-03-04T02:23:21.749Z,18.2
2019-03-04T02:24:12.329Z,18.2
2019-03-04T02:25:02.406Z,18.2
2019-03-04T02:25:52.196Z,18.2
2019-03-04T02:26:42.239Z,18.1
2019-03-04T02:27:32.356Z,18.2
2019-03-04T02:28:22.298Z,18.2
2019-03-04T02:29:12.912Z,18.2
2019-03-04T02:30:02.880Z,18.2
2019-03-04T02:30:53.383Z,18.2
2019-03-04T02:31:43.113Z,18.2
2019-03-04T02:32:32.635Z,18.2
2019-03-04T02:33:23.038Z,18.2
2019-03-04T02:34:13.712Z,18.2
2019-03-04T02:35:03.279Z,18.2
2019-03-04T02:35:52.592Z,18.2
2019-03-04T02:36:43.443Z,18.1
2019-03-04T02:37:33.549Z,18.1
2019-03-04T02:38:23.584Z,18.1
2019-03-04T02:39:13.112Z,18.2
2019-03-04T02:40:03.738Z,18.1
2019-03-04T02:40:53.768Z,18.2
2019-03-04T02:41:44.121Z,18.1
2019-03-04T02:42:34.151Z,18.1
2019-03-04T02:43:24.233Z,18.1
2019-03-04T02:44:14.017Z,18.1
2019-03-04T02:45:04.358Z,18.1
2019-03-04T02:45:54.161Z,18.1
2019-03-04T02:46:44.501Z,18.1
2019-03-04T02:47:34.232Z,18.1
2019-03-04T02:48:24.605Z,18.1
2019-03-04T02:49:14.688Z,18.1
2019-03-04T02:50:04.400Z,18.1
2019-03-04T02:50:54.466Z,18.1
2019-03-04T02:51:43.972Z,18.1
2019-03-04T02:52:34.418Z,18.1
2019-03-04T02:53:24.731Z,18.1
2019-03-04T02:54:14.160Z,18.1
2019-03-04T02:55:05.059Z,18.1
2019-03-04T02:55:54.544Z,18.1
2019-03-04T02:56:45.164Z,18.1
2019-03-04T02:57:34.947Z,18.1
2019-03-04T02:58:24.506Z,18.1
2019-03-04T02:59:15.087Z,18.1
2019-03-04T03:00:04.890Z,18.1
2019-03-04T03:00:55.470Z,18.1
2019-03-04T03:01:44.978Z,18.1
2019-03-04T03:02:34.746Z,18.1
2019-03-04T03:03:25.092Z,18.1
2019-03-04T03:04:15.140Z,18.1
2019-03-04T06:05:47.050Z,18.5
2019-03-04T06:06:37.372Z,18.5
2019-03-04T06:07:27.449Z,18.5
2019-03-04T06:08:17.225Z,18.5
2019-03-04T06:09:07.291Z,18.5
2019-03-04T06:09:57.332Z,18.5
2019-03-04T06:10:47.170Z,18.5
2019-03-04T06:11:37.439Z,18.5
2019-03-04T06:12:27.494Z,18.5
2019-03-04T06:13:17.302Z,18.5
2019-03-04T06:14:07.642Z,18.4
2019-03-04T06:14:57.964Z,18.5
2019-03-04T06:15:47.451Z,18.5
2019-03-04T06:16:48.249Z,18.5
2019-03-04T06:17:27.852Z,18.5
2019-03-04T06:18:17.681Z,18.6
2019-03-04T06:19:07.967Z,18.5
2019-03-04T06:19:57.542Z,18.5
2019-03-04T06:20:48.364Z,18.5
2019-03-04T06:21:38.176Z,18.5
2019-03-04T06:22:28.192Z,18.5
2019-03-04T06:23:18.529Z,18.5
2019-03-04T06:24:08.318Z,18.5
2019-03-04T06:24:58.094Z,18.5
2019-03-04T06:25:48.806Z,18.6
2019-03-04T06:26:38.486Z,18.6
2019-03-04T06:27:28.568Z,18.6
2019-03-04T06:28:18.066Z,18.6
2019-03-04T06:29:08.386Z,18.6
2019-03-04T06:29:58.173Z,18.6
2019-03-04T06:30:50.721Z,18.6
2019-03-04T06:31:38.601Z,18.6
2019-03-04T06:32:29.193Z,18.6
2019-03-04T06:33:19.239Z,18.6
2019-03-04T06:34:08.725Z,18.6
2019-03-04T06:34:59.083Z,18.6
2019-03-04T06:35:48.860Z,18.6
2019-03-04T06:36:39.196Z,18.6
2019-03-04T06:37:28.982Z,18.6
2019-03-04T06:38:19.334Z,18.6
2019-03-04T06:39:09.085Z,18.6
2019-03-04T06:39:59.143Z,18.6
2019-03-04T06:40:49.752Z,18.6
2019-03-04T06:41:39.540Z,18.6
2019-03-04T06:42:29.333Z,18.6
2019-03-04T06:43:19.642Z,18.6
2019-03-04T06:44:09.720Z,18.6
2019-03-04T06:44:59.763Z,18.6
2019-03-04T06:45:49.830Z,18.6
2019-03-04T06:46:39.927Z,18.6
2019-03-04T06:47:29.945Z,18.6
2019-03-04T06:48:19.733Z,18.6
2019-03-04T06:49:09.781Z,18.6
2019-03-04T06:50:00.381Z,18.6
2019-03-04T06:50:50.563Z,18.6
2019-03-04T06:51:39.975Z,18.6
2019-03-04T06:52:30.337Z,18.6
2019-03-04T06:53:20.699Z,18.6
2019-03-04T06:54:10.687Z,18.6
2019-03-04T06:55:00.309Z,18.6
2019-03-04T06:55:50.524Z,18.6
2019-03-04T06:56:40.884Z,18.6
2019-03-04T06:57:32.134Z,18.6
2019-03-04T06:58:21.019Z,18.6
2019-03-04T06:59:10.489Z,18.6
2019-03-04T07:00:00.798Z,18.6
2019-03-04T07:00:51.211Z,18.6
2019-03-04T07:01:41.262Z,18.6
2019-03-04T07:02:31.269Z,18.6
2019-03-04T07:03:21.058Z,18.6
2019-03-04T07:05:46.994Z,18.6
2019-03-04T07:06:37.058Z,18.6
2019-03-04T07:07:27.114Z,18.6
2019-03-04T07:08:17.169Z,18.6
2019-03-04T07:09:07.244Z,18.6
2019-03-04T07:09:57.011Z,18.6
2019-03-04T07:10:47.071Z,18.6
2019-03-04T07:11:37.698Z,18.6
2019-03-04T07:12:27.459Z,18.6
2019-03-04T07:13:17.276Z,18.6
2019-03-04T07:14:07.594Z,18.6
2019-03-04T07:14:57.068Z,18.6
2019-03-04T07:15:47.156Z,18.6
2019-03-04T07:16:37.488Z,18.6
2019-03-04T07:17:27.813Z,18.6
2019-03-04T07:18:17.361Z,18.6
2019-03-04T07:19:07.146Z,18.6
2019-03-04T07:19:58.243Z,18.6
2019-03-04T07:20:48.040Z,18.6
2019-03-04T07:21:37.832Z,18.6
2019-03-04T07:22:28.153Z,18.6
2019-03-04T07:23:18.215Z,18.6
2019-03-04T07:24:08.360Z,18.6
2019-03-04T07:24:57.775Z,18.6
2019-03-04T07:25:48.100Z,18.6
2019-03-04T07:26:38.226Z,18.6
2019-03-04T07:27:27.997Z,18.6
2019-03-04T07:28:18.833Z,18.6
2019-03-04T07:29:08.331Z,18.6
2019-03-04T07:29:58.397Z,18.6
2019-03-04T07:30:48.444Z,18.6
2019-03-04T07:31:38.776Z,18.6
2019-03-04T07:32:28.852Z,18.6
2019-03-04T07:33:18.999Z,18.6
2019-03-04T07:34:08.415Z,18.6
2019-03-04T07:34:59.039Z,18.6
2019-03-04T07:35:49.347Z,18.6
2019-03-04T07:36:39.135Z,17.5
2019-03-04T07:37:29.479Z,36.1
2019-03-04T07:38:19.234Z,51.7
2019-03-04T07:39:09.304Z,54.5
2019-03-04T07:39:59.359Z,53.9
2019-03-04T07:40:49.429Z,53.3
2019-03-04T07:41:38.943Z,51.6
2019-03-04T07:42:31.230Z,50.4
2019-03-04T07:43:19.601Z,49.4
2019-03-04T07:44:09.118Z,48.7
2019-03-04T07:44:59.704Z,47.9
2019-03-04T07:45:50.058Z,47.2
2019-03-04T07:46:40.109Z,46.4
2019-03-04T07:47:29.611Z,45.8
2019-03-04T07:48:19.430Z,45.1
2019-03-04T07:49:10.006Z,44.5
2019-03-04T07:49:59.318Z,43.9
2019-03-04T07:50:50.138Z,43.3
2019-03-04T07:51:40.473Z,42.7
2019-03-04T07:52:29.706Z,42.1
2019-03-04T07:53:22.013Z,41.6
2019-03-04T07:54:10.095Z,41
2019-03-04T07:55:00.421Z,40.5
2019-03-04T07:55:50.753Z,40
2019-03-04T07:56:40.818Z,39.6
2019-03-04T07:57:30.874Z,39.1
2019-03-04T07:58:20.710Z,38.6
2019-03-04T07:59:10.718Z,38.1
2019-03-04T08:00:01.266Z,37.9
2019-03-04T08:00:50.414Z,41.9
2019-03-04T08:01:40.610Z,49.5
2019-03-04T08:02:30.675Z,58.3
2019-03-04T08:03:20.741Z,58.3
2019-03-04T08:04:10.227Z,55.9
2019-03-04T08:05:01.400Z,54.4
2019-03-04T08:05:50.915Z,53.4
2019-03-04T08:06:40.718Z,52.6
2019-03-04T08:07:31.305Z,51.9
2019-03-04T08:08:21.627Z,51.1
2019-03-04T08:09:11.692Z,50.3
2019-03-04T08:10:00.427Z,49.6
2019-03-04T08:10:51.255Z,48.9
2019-03-04T08:11:41.322Z,48.1
2019-03-04T08:12:31.928Z,47.4
2019-03-04T08:13:21.502Z,46.8
2019-03-04T08:14:11.490Z,46.1
2019-03-04T08:15:02.223Z,45.4
2019-03-04T08:15:51.886Z,44.9
2019-03-04T08:16:42.241Z,45.3
2019-03-04T08:17:32.284Z,46.1
2019-03-04T08:18:21.790Z,55.1
2019-03-04T08:19:12.117Z,60.8
2019-03-04T08:20:02.480Z,61.7
2019-03-04T08:20:52.232Z,60.6
2019-03-04T08:21:41.787Z,58.1
2019-03-04T08:22:32.399Z,55.3
2019-03-04T08:23:22.140Z,53.4
2019-03-04T08:24:12.487Z,53.9
2019-03-04T08:25:02.815Z,55.6
2019-03-04T08:25:52.577Z,57.3
2019-03-04T08:26:42.112Z,58.1
2019-03-04T08:27:32.677Z,58.1
2019-03-04T08:28:23.068Z,57.6
2019-03-04T08:29:13.104Z,56.9
2019-03-04T08:30:03.209Z,56.5
2019-03-04T08:30:52.969Z,56.6
2019-03-04T08:31:42.991Z,57.1
2019-03-04T08:32:33.112Z,57.7
2019-03-04T08:33:23.039Z,58.1
2019-03-04T08:34:13.204Z,58.2
2019-03-04T08:35:02.936Z,58.2
2019-03-04T08:35:53.319Z,58.1
2019-03-04T08:36:43.344Z,58.1
2019-03-04T08:37:33.676Z,58.3
2019-03-04T08:38:23.461Z,58.5
2019-03-04T08:39:13.233Z,58.8
2019-03-04T08:40:03.602Z,59.1
2019-03-04T08:40:53.623Z,59.2
2019-03-04T08:41:43.693Z,59.4
2019-03-04T08:42:33.758Z,59.5
2019-03-04T08:43:23.251Z,59.6
2019-03-04T08:44:13.857Z,59.8
2019-03-04T08:45:04.244Z,60
2019-03-04T08:45:53.983Z,60.2
2019-03-04T08:46:44.337Z,60.4
2019-03-04T08:47:34.127Z,60.5
2019-03-04T08:48:24.202Z,60.7
2019-03-04T08:49:14.503Z,60.9
2019-03-04T08:50:04.308Z,61
2019-03-04T08:50:54.355Z,61.2
2019-03-04T08:51:44.403Z,61.4
2019-03-04T08:52:34.195Z,61.5
2019-03-04T08:53:24.218Z,61.6
2019-03-04T08:54:14.878Z,61.8
2019-03-04T08:55:04.127Z,62
2019-03-04T08:55:55.015Z,62.1
2019-03-04T08:56:44.468Z,62.3
2019-03-04T08:57:34.038Z,62.4
2019-03-04T08:58:23.803Z,62.6
2019-03-04T08:59:14.913Z,62.8
2019-03-04T09:00:04.547Z,62.9
2019-03-04T09:00:55.305Z,63.1
2019-03-04T09:01:45.382Z,63.3
2019-03-04T09:02:34.947Z,63.4
2019-03-04T09:03:25.025Z,63.6
2019-03-04T09:04:14.787Z,63.7
2019-03-04T09:05:04.857Z,63.9
2019-03-04T09:05:54.347Z,64.1
2019-03-04T09:06:44.952Z,64.2
2019-03-04T09:07:35.807Z,64.4
2019-03-04T09:08:25.382Z,64.5
2019-03-04T09:09:15.618Z,64.6
2019-03-04T09:10:05.687Z,64.8
2019-03-04T09:10:54.995Z,64.9
2019-03-04T09:11:45.604Z,65
2019-03-04T09:12:37.428Z,65.1
2019-03-04T09:13:25.699Z,65.3
2019-03-04T09:14:15.494Z,65.4
2019-03-04T09:15:05.572Z,65.6
2019-03-04T09:15:55.356Z,65.7
2019-03-04T09:16:45.386Z,65.8
2019-03-04T09:17:35.438Z,65.9
2019-03-04T09:18:25.792Z,66
2019-03-04T09:19:15.862Z,66.1
2019-03-04T09:20:06.176Z,66.2
2019-03-04T09:20:55.726Z,66.3
2019-03-04T09:21:46.279Z,66.4
2019-03-04T09:22:36.094Z,66.5
2019-03-04T09:23:26.131Z,66.6
2019-03-04T09:24:16.234Z,66.8
2019-03-04T09:25:05.996Z,66.8
2019-03-04T09:25:56.324Z,66.9
2019-03-04T09:26:46.091Z,67.1
2019-03-04T09:27:36.903Z,67.1
2019-03-04T09:28:26.472Z,67.3
2019-03-04T09:29:16.541Z,67.3
2019-03-04T09:30:06.323Z,67.4
2019-03-04T09:30:56.653Z,67.5
2019-03-04T09:31:47.193Z,67.6
2019-03-04T09:32:36.738Z,67.7
2019-03-04T09:33:27.061Z,67.8
2019-03-04T09:34:17.376Z,67.9
2019-03-04T09:35:07.448Z,67.9
2019-03-04T09:35:57.775Z,68.1
2019-03-04T09:36:47.579Z,68.1
2019-03-04T09:37:37.613Z,68.3
2019-03-04T09:38:27.653Z,68.4
2019-03-04T09:39:17.770Z,68.5
2019-03-04T09:40:07.825Z,68.6
2019-03-04T09:40:57.893Z,68.8
2019-03-04T09:41:48.175Z,68.8
2019-03-04T09:42:38.238Z,68.9
2019-03-04T09:43:27.745Z,69
2019-03-04T09:44:17.789Z,69.1
2019-03-04T09:45:07.920Z,69.2
2019-03-04T09:45:57.902Z,69.3
2019-03-04T09:46:48.560Z,69.4
2019-03-04T09:47:38.315Z,69.4
2019-03-04T09:48:28.641Z,69.4
2019-03-04T09:49:18.439Z,69.5
2019-03-04T09:50:08.210Z,69.6
2019-03-04T09:50:58.258Z,69.8
2019-03-04T09:51:48.913Z,69.9
2019-03-04T09:52:38.119Z,70
2019-03-04T09:53:28.435Z,70
2019-03-04T09:54:18.770Z,70.1
2019-03-04T09:55:09.144Z,70.1
2019-03-04T09:55:58.600Z,70.1
2019-03-04T09:56:48.780Z,70.2
2019-03-04T09:57:38.747Z,70.2
2019-03-04T09:58:29.112Z,70.3
2019-03-04T09:59:18.835Z,70.4
2019-03-04T10:00:09.452Z,70.5
2019-03-04T10:00:58.945Z,70.6
2019-03-04T10:01:49.301Z,70.6
2019-03-04T10:02:39.679Z,70.7
2019-03-04T10:03:29.401Z,70.8
2019-03-04T10:04:19.747Z,70.8
2019-03-04T10:06:47.104Z,70.9
2019-03-04T10:07:36.899Z,70.9
2019-03-04T10:08:36.019Z,70.9
2019-03-04T10:09:17.026Z,70.9
2019-03-04T10:10:06.880Z,71
2019-03-04T10:10:56.861Z,71.1
2019-03-04T10:11:46.905Z,71.1
2019-03-04T10:12:37.530Z,71.2
2019-03-04T10:13:27.316Z,71.3
2019-03-04T10:14:17.148Z,71.3
2019-03-04T10:15:11.615Z,71.3
2019-03-04T10:15:57.216Z,71.3
2019-03-04T10:16:47.803Z,71.3
2019-03-04T10:17:37.333Z,71.3
2019-03-04T10:18:27.949Z,71.3
2019-03-04T10:19:17.159Z,71.3
2019-03-04T10:20:07.496Z,71.4
2019-03-04T10:20:57.593Z,71.4
2019-03-04T10:21:49.990Z,71.4
2019-03-04T10:22:37.950Z,71.4
2019-03-04T10:23:27.733Z,71.5
2019-03-04T10:24:17.528Z,71.5
2019-03-04T10:25:07.853Z,71.5
2019-03-04T10:25:57.615Z,71.6
2019-03-04T10:26:48.532Z,71.6
2019-03-04T10:27:38.013Z,71.6
2019-03-04T10:28:28.083Z,71.6
2019-03-04T10:29:18.417Z,71.6
2019-03-04T10:30:08.208Z,71.6
2019-03-04T10:30:58.570Z,71.4
2019-03-04T10:31:48.603Z,71.4
2019-03-04T10:32:38.362Z,71.2
2019-03-04T10:33:29.026Z,70.9
2019-03-04T10:34:18.759Z,70.8
2019-03-04T10:35:08.850Z,70.6
2019-03-04T10:35:58.333Z,70.5
2019-03-04T10:36:49.210Z,70.4
2019-03-04T10:37:39.267Z,70.4
2019-03-04T10:38:29.045Z,70.3
2019-03-04T10:39:25.049Z,70.3
2019-03-04T10:40:08.634Z,70.2
2019-03-04T10:41:01.192Z,70.1
2019-03-04T10:41:48.750Z,70.1
2019-03-04T10:42:39.372Z,70.1
2019-03-04T10:43:29.412Z,70.1
2019-03-04T10:44:19.742Z,70.1
2019-03-04T10:45:08.969Z,70.1
2019-03-04T10:45:59.592Z,70
2019-03-04T10:46:49.383Z,70
2019-03-04T10:47:39.962Z,70.1
2019-03-04T10:48:29.803Z,70.1
2019-03-04T10:49:20.095Z,70.1
2019-03-04T10:50:10.154Z,70.1
2019-03-04T10:50:59.937Z,70.1
2019-03-04T10:51:49.783Z,70.1
2019-03-04T10:52:40.329Z,70.1
2019-03-04T10:53:30.389Z,70.3
2019-03-04T10:54:20.445Z,70.4
2019-03-04T10:55:10.514Z,70.4
2019-03-04T10:56:00.299Z,70.5
2019-03-04T10:56:49.584Z,70.6
2019-03-04T10:57:40.405Z,70.6
2019-03-04T10:58:30.176Z,70.7
2019-03-04T10:59:20.779Z,70.8
2019-03-04T11:00:10.649Z,70.8
2019-03-04T11:01:00.688Z,70.8
2019-03-04T11:01:53.161Z,70.8
2019-03-04T11:02:40.181Z,70.8
2019-03-04T11:03:31.098Z,70.8
2019-03-04T11:04:20.076Z,70.8
2019-03-04T11:05:10.418Z,70.9
2019-03-04T11:06:00.981Z,70.8
2019-03-04T11:06:50.763Z,70.8
2019-03-04T11:07:40.618Z,70.9
2019-03-04T11:08:31.218Z,70.9
2019-03-04T11:09:21.000Z,70.9
2019-03-04T11:10:10.778Z,70.9
2019-03-04T11:11:01.356Z,70.9
2019-03-04T11:11:51.650Z,70.9
2019-03-04T11:12:41.732Z,70.9
2019-03-04T11:13:31.783Z,70.9
2019-03-04T11:14:21.296Z,70.9
2019-03-04T11:15:11.345Z,70.8
2019-03-04T11:16:01.405Z,70.8
2019-03-04T11:16:52.032Z,70.8
2019-03-04T11:17:41.505Z,70.6
2019-03-04T11:18:31.866Z,70.6
2019-03-04T11:19:22.213Z,70.6
2019-03-04T11:20:11.418Z,70.6
2019-03-04T11:21:02.032Z,70.6
2019-03-04T11:21:51.830Z,70.5
2019-03-04T11:22:41.859Z,70.5
2019-03-04T11:23:32.482Z,70.4
2019-03-04T11:24:22.545Z,70.4
2019-03-04T11:25:12.045Z,70.3
2019-03-04T11:26:02.392Z,70.3
2019-03-04T11:26:52.706Z,70.3
2019-03-04T11:27:42.500Z,70.3
2019-03-04T11:28:32.552Z,70.3
2019-03-04T11:29:22.905Z,70.3
2019-03-04T11:30:12.950Z,70.3
2019-03-04T11:31:02.458Z,70.3
2019-03-04T11:31:52.808Z,70.2
2019-03-04T11:32:42.606Z,70.1
2019-03-04T11:33:32.893Z,70.1
2019-03-04T11:34:22.741Z,70.1
2019-03-04T11:35:12.200Z,70
2019-03-04T11:36:03.444Z,69.9
2019-03-04T11:36:52.582Z,69.9
2019-03-04T11:37:43.199Z,69.8
2019-03-04T11:38:33.244Z,69.8
2019-03-04T11:39:23.361Z,69.8
2019-03-04T11:40:13.629Z,69.8
2019-03-04T11:41:03.434Z,69.8
2019-03-04T11:41:53.206Z,69.7
2019-03-04T11:42:43.818Z,69.6
2019-03-04T11:43:33.044Z,69.4
2019-03-04T11:44:23.940Z,69.4
2019-03-04T11:45:13.492Z,69.3
2019-03-04T11:46:04.060Z,69.3
2019-03-04T11:46:54.146Z,69.3
2019-03-04T11:47:43.888Z,69.4
2019-03-04T11:48:34.221Z,69.4
2019-03-04T11:49:24.056Z,69.4
2019-03-04T11:50:13.285Z,69.4
2019-03-04T11:51:04.148Z,69.4
2019-03-04T11:51:53.925Z,69.4
2019-03-04T11:52:44.246Z,69.4
2019-03-04T11:53:34.025Z,69.4
2019-03-04T11:54:24.351Z,69.3
2019-03-04T11:55:14.206Z,69.3
2019-03-04T11:56:04.773Z,69.3
2019-03-04T11:56:54.548Z,69.2
2019-03-04T11:57:44.598Z,69.2
2019-03-04T11:58:34.640Z,69.1
2019-03-04T11:59:24.790Z,69.2
2019-03-04T12:00:14.500Z,69.1
2019-03-04T12:01:04.636Z,69.1
2019-03-04T12:01:54.940Z,69.1
2019-03-04T12:02:45.218Z,69.2
2019-03-04T12:03:35.278Z,69.2
2019-03-04T12:04:25.083Z,69.2
2019-03-04T12:06:46.776Z,69.1
2019-03-04T12:07:36.562Z,69.2
2019-03-04T12:08:26.878Z,69.1
2019-03-04T12:09:16.940Z,69.2
2019-03-04T12:10:07.307Z,69.2
2019-03-04T12:10:57.026Z,69.2
2019-03-04T12:11:47.362Z,69.1
2019-03-04T12:12:37.160Z,69.1
2019-03-04T12:13:27.215Z,69
2019-03-04T12:14:17.249Z,68.9
2019-03-04T12:15:06.506Z,68.8
2019-03-04T12:15:57.377Z,68.7
2019-03-04T12:16:47.171Z,68.6
2019-03-04T12:17:36.951Z,68.6
2019-03-04T12:18:27.882Z,68.6
2019-03-04T12:19:17.654Z,68.5
2019-03-04T12:20:07.994Z,68.4
2019-03-04T12:20:58.001Z,68.4
2019-03-04T12:21:47.809Z,68.4
2019-03-04T12:22:37.838Z,68.3
2019-03-04T12:23:27.932Z,68.3
2019-03-04T12:24:18.036Z,68.3
2019-03-04T12:25:07.792Z,68.2
2019-03-04T12:25:57.809Z,68.1
2019-03-04T12:26:48.127Z,68
2019-03-04T12:27:37.979Z,67.9
2019-03-04T12:28:28.256Z,67.8
2019-03-04T12:29:18.609Z,67.6
2019-03-04T12:30:07.834Z,67.5
2019-03-04T12:30:58.711Z,67.3
2019-03-04T12:31:48.229Z,67.3
2019-03-04T12:32:38.549Z,67.2
2019-03-04T12:33:28.881Z,67.2
2019-03-04T12:34:28.125Z,67.1
2019-03-04T12:35:08.701Z,67.1
2019-03-04T12:35:59.061Z,67
2019-03-04T12:36:48.838Z,66.9
2019-03-04T12:37:39.192Z,66.8
2019-03-04T12:38:29.242Z,66.6
2019-03-04T12:39:19.033Z,65.9
2019-03-04T12:40:09.121Z,64.8
2019-03-04T12:40:59.410Z,63.7
2019-03-04T12:41:51.680Z,62.6
2019-03-04T12:42:39.553Z,61.6
2019-03-04T12:43:29.049Z,60.6
2019-03-04T12:44:19.096Z,59.7
2019-03-04T12:45:09.425Z,58.8
2019-03-04T12:45:58.655Z,57.9
2019-03-04T12:46:49.261Z,57.1
2019-03-04T12:47:39.621Z,56.3
2019-03-04T12:48:29.656Z,55.4
2019-03-04T12:49:19.988Z,54.6
2019-03-04T12:50:09.275Z,53.9
2019-03-04T12:50:59.844Z,53.2
2019-03-04T12:51:49.615Z,52.5
2019-03-04T12:52:39.667Z,55.5
2019-03-04T12:53:40.332Z,60.6
2019-03-04T12:54:19.790Z,69.7
2019-03-04T12:55:09.657Z,70.8
2019-03-04T12:56:00.195Z,70.3
2019-03-04T12:56:50.297Z,67.9
2019-03-04T12:57:40.307Z,66
2019-03-04T12:58:30.100Z,64.9
2019-03-04T12:59:19.664Z,64.1
2019-03-04T13:00:09.814Z,63.4
2019-03-04T13:01:00.557Z,62.6
2019-03-04T13:01:50.874Z,61.6
2019-03-04T13:02:40.659Z,60.6
2019-03-04T13:03:30.444Z,59.4
2019-03-04T13:04:20.784Z,58.7
2019-03-04T13:06:00.625Z,56.9
2019-03-04T13:06:51.221Z,56.1
2019-03-04T13:07:41.294Z,55.3
2019-03-04T13:08:31.346Z,54.4
2019-03-04T13:09:21.448Z,53.7
2019-03-04T13:10:10.646Z,52.9
2019-03-04T13:11:01.249Z,52.3
2019-03-04T13:11:51.331Z,51.5
2019-03-04T13:12:41.684Z,50.9
2019-03-04T13:13:31.173Z,50.2
2019-03-04T13:14:21.494Z,49.6
2019-03-04T13:15:11.273Z,49
2019-03-04T13:16:01.051Z,48.4
2019-03-04T13:16:51.929Z,47.8
2019-03-04T13:17:42.008Z,47.3
2019-03-04T13:18:32.061Z,46.8
2019-03-04T13:19:21.819Z,46.3
2019-03-04T13:20:11.898Z,45.8
2019-03-04T13:21:02.228Z,45.3
2019-03-04T13:21:52.056Z,44.8
2019-03-04T13:22:42.128Z,44.2
2019-03-04T13:23:31.849Z,43.9
2019-03-04T13:24:22.585Z,43.5
2019-03-04T13:25:12.276Z,43
2019-03-04T13:26:02.304Z,42.6
2019-03-04T13:26:52.360Z,42.2
2019-03-04T13:27:41.643Z,41.8
2019-03-04T13:28:32.478Z,41.4
2019-03-04T13:29:22.823Z,41.1
2019-03-04T13:30:12.625Z,40.7
2019-03-04T13:31:17.601Z,40.4
2019-03-04T13:31:52.525Z,39.9
2019-03-04T13:32:42.783Z,39.7
2019-03-04T13:33:33.163Z,39.4
2019-03-04T13:34:22.209Z,39.1
2019-03-04T13:35:12.953Z,38.8
2019-03-04T13:36:02.173Z,38.4
2019-03-04T13:36:52.887Z,38.1
2019-03-04T13:37:42.935Z,37.9
2019-03-04T13:38:32.973Z,37.6
2019-03-04T13:39:23.057Z,37.3
2019-03-04T13:40:12.819Z,37.1
2019-03-04T13:41:02.607Z,36.8
2019-03-04T13:41:53.225Z,36.5
2019-03-04T13:42:43.317Z,36.3
2019-03-04T13:43:32.799Z,36
2019-03-04T13:44:23.402Z,35.8
2019-03-04T13:45:12.981Z,35.6
2019-03-04T13:46:03.237Z,35.3
2019-03-04T13:46:53.602Z,35.1
2019-03-04T13:47:44.194Z,34.9
2019-03-04T13:48:33.692Z,34.7
2019-03-04T13:49:22.922Z,34.4
2019-03-04T13:50:14.281Z,34.3
2019-03-04T13:51:04.372Z,34.1
2019-03-04T13:51:53.669Z,33.8
2019-03-04T13:52:44.467Z,33.7
2019-03-04T13:53:33.984Z,33.4
2019-03-04T13:54:24.017Z,33.3
2019-03-04T13:55:14.374Z,33.1
2019-03-04T13:56:03.693Z,32.9
2019-03-04T13:56:54.499Z,32.8
2019-03-04T13:57:44.276Z,32.6
2019-03-04T13:58:34.876Z,32.4
2019-03-04T13:59:24.953Z,32.3
2019-03-04T14:00:14.733Z,32.1
2019-03-04T14:01:04.498Z,31.9
2019-03-04T14:01:54.873Z,31.8
2019-03-04T14:02:44.632Z,31.6
2019-03-04T14:03:34.696Z,31.5
2019-03-04T14:04:25.323Z,31.4
2019-03-04T14:05:15.426Z,31.2
2019-03-04T14:08:02.540Z,30.8
2019-03-04T16:07:46.560Z,23.3
2019-03-04T16:08:36.604Z,23.3
2019-03-04T16:09:26.207Z,23.3
2019-03-04T16:10:15.721Z,23.2
2019-03-04T16:11:06.512Z,23.2
2019-03-04T16:11:56.551Z,23.2
2019-03-04T16:12:47.167Z,23.1
2019-03-04T16:13:36.479Z,23.1
2019-03-04T16:14:27.047Z,23.1